Edgarton, West Virginia
Current Conditions -  °F | °C
As of 11:15 AM on Sunday 23 Nov 2014 (Local Time) from KPBX Reporting Station
Broken Clouds Broken Clouds  
Wind Chill: 58°   Ceiling: 8500
Heat Index: 58°   Visibility: 10mi
Dew Point: 42°   Wind: 9mph
Humidity: 55%   Direction: 140°SE
Pressure: 29.97"   Gusts: NA
Location:  37.57°N, 82.14°W
Report Text: KPBX 231615Z AUTO 14008KT 10SM BKN085 15/06 A2997 RMK AO2 T01450055
Loading
Personal Weather Stations






























Interactive Weather Map New forecast layout! Learn more

10-Day Weather Forecast

Advertisements
Track Severe Weather on mobile